< < Back
Terminal Aerodrome Forecast


Current Version              Previous Versions:   1  2  3  4  5  6  7  8  9  

Terminal Aerodrome Forecast

796
FTUS42 KFFC 221135
TAFMCN
TAF
KMCN 221135Z 2212/2312 06007KT 2SM -DZ BR OVC004
     FM221600 06006KT 4SM -RADZ BR OVC006
     FM222000 07007KT 6SM -DZ BR OVC012
     FM230000 09009KT 4SM -DZ BR OVC004 PROB30 2308/2312 1SM -RA BR
      OVC004=



Latest METAR

195
SAUS80 KWBC 221800
MTRMCN
METAR KMCN 221753Z 07006KT 3SM BR BKN004 OVC008 09/09 A2997 RMK AO2
RAB13E32 SLP148 P0000 60012 T00890089 10089 20083 56021


USA.gov is the U.S. government's official web portal to all federal, state and local government web resources and services.